createdAt,value
2022-08-30T00:02:10.685Z,81.90
2022-08-30T00:04:37.593Z,81.90
2022-08-30T00:07:04.509Z,81.90
2022-08-30T00:09:32.165Z,81.80
2022-08-30T00:11:59.731Z,82.10
2022-08-30T00:14:27.540Z,82.10
2022-08-30T00:16:55.343Z,82.00
2022-08-30T00:19:22.083Z,82.10
2022-08-30T00:21:48.790Z,82.30
2022-08-30T00:24:15.488Z,82.60
2022-08-30T00:26:42.180Z,82.00
2022-08-30T00:29:08.890Z,82.20
2022-08-30T00:31:35.653Z,82.20
2022-08-30T00:34:02.421Z,82.20
2022-08-30T00:36:29.321Z,81.60
2022-08-30T00:38:56.046Z,81.10
2022-08-30T00:41:22.973Z,80.50
2022-08-30T00:43:49.797Z,80.10
2022-08-30T00:46:16.602Z,80.50
2022-08-30T00:48:48.323Z,81.50
2022-08-30T00:51:16.042Z,81.60
2022-08-30T00:53:47.421Z,81.60
2022-08-30T00:56:15.132Z,81.40
2022-08-30T00:58:46.429Z,81.70
2022-08-30T01:01:13.677Z,82.10
2022-08-30T01:03:41.790Z,81.80
2022-08-30T01:06:08.876Z,81.50
2022-08-30T01:08:35.910Z,81.90
2022-08-30T01:11:04.110Z,81.90
2022-08-30T01:13:32.552Z,81.20
2022-08-30T01:16:02.587Z,80.90
2022-08-30T01:18:31.345Z,80.70
2022-08-30T01:21:35.742Z,81.10
2022-08-30T01:24:04.671Z,81.20
2022-08-30T01:26:32.758Z,81.50
2022-08-30T01:29:04.666Z,81.80
2022-08-30T01:31:32.677Z,82.20
2022-08-30T01:34:01.489Z,82.00
2022-08-30T01:36:29.019Z,81.40
2022-08-30T01:38:57.952Z,80.90
2022-08-30T01:41:34.270Z,82.00
2022-08-30T01:44:07.519Z,83.10
2022-08-30T01:46:37.896Z,83.20
2022-08-30T01:49:10.095Z,82.80
2022-08-30T01:51:37.709Z,82.90
2022-08-30T01:54:04.750Z,83.20
2022-08-30T01:56:31.618Z,83.70
2022-08-30T01:59:02.638Z,83.60
2022-08-30T02:01:32.599Z,83.50
2022-08-30T02:04:00.222Z,83.10
2022-08-30T02:06:27.395Z,83.00
2022-08-30T02:08:54.220Z,82.60
2022-08-30T02:11:21.070Z,82.00
2022-08-30T02:13:47.898Z,81.90
2022-08-30T02:16:17.794Z,82.40
2022-08-30T02:18:45.220Z,83.70
2022-08-30T02:21:12.998Z,84.50
2022-08-30T02:23:40.057Z,84.30
2022-08-30T02:26:07.541Z,84.10
2022-08-30T02:28:34.617Z,84.30
2022-08-30T02:31:10.977Z,83.90
2022-08-30T02:33:38.254Z,83.60
2022-08-30T02:36:08.249Z,83.10
2022-08-30T02:38:35.592Z,82.20
2022-08-30T02:41:02.495Z,82.30
2022-08-30T02:43:29.217Z,82.70
2022-08-30T02:45:56.134Z,83.10
2022-08-30T02:48:22.930Z,83.60
2022-08-30T02:50:52.109Z,84.30
2022-08-30T02:53:21.073Z,84.50
2022-08-30T02:55:48.566Z,84.60
2022-08-30T02:58:15.523Z,84.50
2022-08-30T03:00:42.753Z,84.40
2022-08-30T03:03:09.734Z,84.20
2022-08-30T03:05:39.820Z,83.60
2022-08-30T03:08:07.439Z,83.30
2022-08-30T03:10:34.289Z,82.60
2022-08-30T03:13:01.044Z,82.30
2022-08-30T03:15:28.203Z,81.70
2022-08-30T03:17:55.565Z,80.60
2022-08-30T03:20:23.314Z,80.90
2022-08-30T03:22:50.892Z,80.40
2022-08-30T03:25:18.082Z,80.50
2022-08-30T03:27:44.829Z,81.30
2022-08-30T03:30:12.547Z,82.00
2022-08-30T03:32:39.933Z,82.80
2022-08-30T03:35:07.990Z,83.30
2022-08-30T03:37:35.551Z,83.60
2022-08-30T03:40:04.450Z,83.20
2022-08-30T03:42:32.863Z,83.30
2022-08-30T03:45:02.219Z,83.60
2022-08-30T03:47:29.443Z,83.60
2022-08-30T03:49:56.553Z,82.60
2022-08-30T03:52:23.544Z,82.50
2022-08-30T03:54:50.341Z,82.40
2022-08-30T03:57:19.692Z,81.40
2022-08-30T03:59:46.957Z,80.90
2022-08-30T04:02:13.829Z,80.60
2022-08-30T04:04:40.585Z,80.80
2022-08-30T04:07:07.306Z,80.90
2022-08-30T04:09:34.624Z,80.90
2022-08-30T04:12:01.405Z,81.30
2022-08-30T04:14:28.119Z,81.60
2022-08-30T04:16:54.835Z,81.80
2022-08-30T04:19:21.706Z,82.30
2022-08-30T04:21:48.407Z,82.20
2022-08-30T04:24:15.338Z,82.20
2022-08-30T04:26:42.528Z,82.10
2022-08-30T04:29:11.669Z,81.40
2022-08-30T04:31:38.493Z,81.90
2022-08-30T04:34:05.172Z,81.40
2022-08-30T04:36:31.886Z,81.90
2022-08-30T04:38:59.070Z,82.10
2022-08-30T04:41:25.738Z,82.20
2022-08-30T04:43:52.463Z,81.60
2022-08-30T04:46:19.783Z,81.90
2022-08-30T04:48:47.192Z,81.70
2022-08-30T04:51:16.636Z,81.60
2022-08-30T04:53:44.567Z,81.90
2022-08-30T04:56:16.437Z,82.20
2022-08-30T04:58:44.450Z,82.40
2022-08-30T05:01:19.036Z,82.70
2022-08-30T05:03:48.033Z,83.10
2022-08-30T05:06:15.874Z,83.40
2022-08-30T05:08:46.665Z,83.60
2022-08-30T05:11:15.315Z,83.30
2022-08-30T05:13:42.530Z,83.20
2022-08-30T05:16:09.431Z,83.10
2022-08-30T05:18:37.346Z,83.10
2022-08-30T05:21:13.084Z,83.20
2022-08-30T05:23:41.102Z,83.20
2022-08-30T05:26:12.669Z,82.80
2022-08-30T05:28:39.728Z,82.80
2022-08-30T05:31:27.565Z,83.20
2022-08-30T05:33:55.423Z,83.50
2022-08-30T05:36:25.318Z,83.30
2022-08-30T05:38:52.408Z,83.80
2022-08-30T05:41:20.344Z,84.00
2022-08-30T05:43:47.829Z,83.50
2022-08-30T05:46:19.577Z,83.40
2022-08-30T05:48:48.879Z,83.70
2022-08-30T05:51:26.469Z,83.40
2022-08-30T05:53:54.297Z,83.00
2022-08-30T05:56:24.855Z,83.00
2022-08-30T05:58:53.404Z,83.60
2022-08-30T06:01:22.958Z,83.20
2022-08-30T06:03:49.742Z,82.80
2022-08-30T06:06:16.907Z,83.20
2022-08-30T06:08:46.065Z,82.50
2022-08-30T06:11:13.608Z,82.60
2022-08-30T06:13:40.559Z,82.40
2022-08-30T06:16:07.929Z,81.60
2022-08-30T06:18:34.642Z,81.90
2022-08-30T06:21:01.605Z,81.80
2022-08-30T06:23:28.956Z,81.50
2022-08-30T06:25:55.684Z,82.20
2022-08-30T06:28:22.860Z,81.90
2022-08-30T06:30:49.539Z,82.20
2022-08-30T06:33:16.429Z,81.40
2022-08-30T06:35:58.140Z,81.40
2022-08-30T06:38:26.072Z,80.80
2022-08-30T06:40:52.783Z,80.50
2022-08-30T06:43:19.574Z,80.50
2022-08-30T06:45:46.274Z,80.70
2022-08-30T06:48:13.221Z,80.40
2022-08-30T06:50:41.954Z,80.60
2022-08-30T06:53:09.745Z,80.60
2022-08-30T06:55:37.002Z,80.90
2022-08-30T06:58:04.294Z,80.80
2022-08-30T07:00:31.073Z,81.00
2022-08-30T07:02:58.491Z,80.90
2022-08-30T07:05:25.280Z,80.60
2022-08-30T07:07:54.865Z,80.80
2022-08-30T07:10:21.693Z,80.70
2022-08-30T07:12:49.002Z,80.50
2022-08-30T07:15:16.534Z,79.90
2022-08-30T07:18:01.881Z,79.80
2022-08-30T07:20:39.923Z,79.40
2022-08-30T07:23:08.529Z,79.70
2022-08-30T07:25:37.202Z,79.70
2022-08-30T07:28:05.545Z,79.20
2022-08-30T07:30:32.945Z,79.50
2022-08-30T07:32:59.759Z,79.10
2022-08-30T07:35:27.023Z,79.00
2022-08-30T07:37:53.762Z,78.80
2022-08-30T07:40:20.629Z,78.40
2022-08-30T07:42:47.378Z,78.60
2022-08-30T07:45:14.135Z,78.30
2022-08-30T07:47:41.256Z,78.30
2022-08-30T07:50:08.664Z,77.70
2022-08-30T07:55:03.040Z,77.80
2022-08-30T07:57:33.663Z,77.60
2022-08-30T08:00:00.954Z,77.80
2022-08-30T08:02:27.797Z,77.80
2022-08-30T08:04:54.567Z,77.30
2022-08-30T08:07:21.286Z,77.30
2022-08-30T08:09:47.976Z,77.20
2022-08-30T08:12:14.729Z,77.20
2022-08-30T08:14:41.444Z,77.20
2022-08-30T08:17:08.366Z,76.60
2022-08-30T08:19:35.042Z,76.50
2022-08-30T08:22:20.121Z,76.40
2022-08-30T08:24:48.599Z,75.80
2022-08-30T08:27:15.490Z,75.80
2022-08-30T08:29:42.275Z,76.10
2022-08-30T08:32:08.980Z,76.20
2022-08-30T08:34:36.650Z,75.70
2022-08-30T08:37:03.602Z,74.90
2022-08-30T08:39:30.346Z,75.20
2022-08-30T08:42:13.738Z,74.90
2022-08-30T08:45:00.752Z,75.00
2022-08-30T08:47:56.786Z,74.90
2022-08-30T08:50:24.233Z,74.90
2022-08-30T08:53:36.071Z,74.70
2022-08-30T08:56:15.143Z,73.90
2022-08-30T08:58:43.622Z,74.00
2022-08-30T09:01:12.725Z,74.10
2022-08-30T09:03:39.903Z,74.20
2022-08-30T09:06:45.676Z,73.80
2022-08-30T09:09:13.162Z,73.60
2022-08-30T09:11:42.016Z,73.60
2022-08-30T09:14:19.687Z,73.60
2022-08-30T09:17:02.927Z,73.10
2022-08-30T09:19:51.551Z,73.30
2022-08-30T09:22:26.290Z,72.70
2022-08-30T09:25:00.194Z,72.60
2022-08-30T09:27:34.682Z,72.10
2022-08-30T09:30:19.248Z,72.20
2022-08-30T09:33:01.406Z,72.40
2022-08-30T09:35:38.755Z,72.00
2022-08-30T09:38:29.787Z,72.00
2022-08-30T09:40:59.452Z,72.50
2022-08-30T09:43:32.620Z,72.40
2022-08-30T09:46:02.084Z,72.00
2022-08-30T09:48:40.570Z,71.80
2022-08-30T09:51:32.761Z,70.90
2022-08-30T09:54:26.116Z,70.90
2022-08-30T09:57:16.482Z,70.70
2022-08-30T10:00:11.743Z,70.50
2022-08-30T10:02:55.477Z,70.10
2022-08-30T10:05:40.726Z,70.00
2022-08-30T10:08:45.699Z,69.80
2022-08-30T10:11:30.690Z,69.50
2022-08-30T10:14:05.970Z,69.30
2022-08-30T10:16:42.357Z,69.00
2022-08-30T10:19:36.022Z,68.70
2022-08-30T10:22:08.952Z,67.80
2022-08-30T10:24:43.930Z,67.80
2022-08-30T10:27:23.950Z,66.80
2022-08-30T10:29:56.694Z,67.30
2022-08-30T10:32:39.526Z,67.60
2022-08-30T10:35:19.350Z,67.60
2022-08-30T10:38:01.893Z,67.00
2022-08-30T10:40:54.609Z,67.20
2022-08-30T10:43:34.318Z,66.50
2022-08-30T10:46:05.693Z,66.20
2022-08-30T10:48:44.429Z,66.20
2022-08-30T10:51:28.003Z,65.80
2022-08-30T10:54:22.821Z,65.60
2022-08-30T10:56:51.697Z,66.10
2022-08-30T10:59:20.395Z,65.40
2022-08-30T11:01:59.036Z,65.80
2022-08-30T11:05:23.987Z,65.50
2022-08-30T11:08:09.882Z,64.50
2022-08-30T11:10:56.826Z,64.50
2022-08-30T11:13:27.105Z,63.90
2022-08-30T11:15:57.406Z,64.00
2022-08-30T11:18:27.445Z,64.30
2022-08-30T11:21:16.413Z,63.30
2022-08-30T11:24:01.724Z,63.30
2022-08-30T11:26:49.844Z,62.90
2022-08-30T11:29:42.820Z,62.80
2022-08-30T11:32:12.248Z,62.90
2022-08-30T11:34:48.244Z,62.40
2022-08-30T11:37:42.405Z,62.30
2022-08-30T11:40:13.362Z,62.40
2022-08-30T11:42:52.396Z,62.20
2022-08-30T11:45:25.453Z,62.70
2022-08-30T11:48:04.599Z,62.00
2022-08-30T11:50:55.075Z,61.80
2022-08-30T11:53:46.689Z,62.00
2022-08-30T11:56:27.436Z,61.20
2022-08-30T11:59:15.387Z,60.80
2022-08-30T12:01:50.693Z,60.90
2022-08-30T12:04:22.154Z,61.40
2022-08-30T12:06:58.853Z,60.60
2022-08-30T12:09:26.309Z,60.70
2022-08-30T12:12:00.106Z,61.20
2022-08-30T12:14:41.143Z,61.30
2022-08-30T12:17:43.639Z,62.30
2022-08-30T12:20:19.683Z,61.70
2022-08-30T12:22:48.962Z,60.70
2022-08-30T12:25:21.756Z,60.60
2022-08-30T12:27:49.603Z,60.10
2022-08-30T12:30:26.903Z,60.60
2022-08-30T12:32:54.719Z,62.10
2022-08-30T12:35:25.653Z,61.70
2022-08-30T12:38:01.785Z,61.20
2022-08-30T12:40:31.362Z,60.40
2022-08-30T12:43:07.875Z,61.10
2022-08-30T12:45:44.006Z,59.80
2022-08-30T12:48:15.812Z,61.30
2022-08-30T12:50:51.780Z,60.90
2022-08-30T12:53:42.443Z,61.70
2022-08-30T12:56:12.809Z,61.40
2022-08-30T12:58:52.479Z,61.10
2022-08-30T13:01:29.656Z,61.50
2022-08-30T13:04:13.347Z,61.70
2022-08-30T13:06:53.096Z,61.30
2022-08-30T13:09:32.509Z,62.20
2022-08-30T13:12:04.685Z,61.30
2022-08-30T13:14:43.611Z,61.50
2022-08-30T13:17:19.366Z,60.80
2022-08-30T13:20:19.394Z,61.60
2022-08-30T13:23:07.817Z,62.80
2022-08-30T13:25:38.155Z,62.50
2022-08-30T13:28:07.045Z,62.50
2022-08-30T13:30:34.570Z,61.40
2022-08-30T13:33:02.264Z,62.30
2022-08-30T13:35:30.306Z,61.10
2022-08-30T13:37:59.695Z,61.50
2022-08-30T13:40:26.437Z,60.90
2022-08-30T13:42:53.246Z,61.30
2022-08-30T13:48:07.719Z,61.50
2022-08-30T13:50:34.427Z,61.10
2022-08-30T13:53:01.233Z,61.50
2022-08-30T13:55:28.493Z,60.40
2022-08-30T13:57:56.427Z,60.30
2022-08-30T14:00:26.336Z,59.20
2022-08-30T14:02:57.286Z,60.40
2022-08-30T14:11:03.709Z,60.20
2022-08-30T14:13:30.600Z,60.30
2022-08-30T14:18:48.072Z,60.50
2022-08-30T14:21:16.392Z,60.20
2022-08-30T14:23:43.097Z,60.40
2022-08-30T14:26:23.453Z,60.10
2022-08-30T14:28:51.865Z,59.90
2022-08-30T14:31:19.777Z,60.10
2022-08-30T14:33:47.153Z,59.20
2022-08-30T14:36:15.835Z,60.10
2022-08-30T14:38:44.860Z,60.20
2022-08-30T14:41:11.762Z,60.40
2022-08-30T14:43:40.609Z,60.40
2022-08-30T14:46:09.011Z,60.10
2022-08-30T14:48:38.383Z,60.40
2022-08-30T14:51:16.768Z,60.60
2022-08-30T14:53:44.351Z,60.10
2022-08-30T14:56:14.470Z,60.10
2022-08-30T14:58:41.391Z,60.80
2022-08-30T15:01:09.997Z,60.70
2022-08-30T15:03:40.302Z,61.30
2022-08-30T15:06:07.868Z,61.80
2022-08-30T15:08:35.986Z,60.60
2022-08-30T15:11:08.569Z,61.30
2022-08-30T15:13:35.626Z,60.60
2022-08-30T15:16:02.845Z,59.80
2022-08-30T15:18:29.567Z,59.90
2022-08-30T15:20:56.557Z,60.60
2022-08-30T15:23:24.804Z,60.00
2022-08-30T15:25:51.787Z,61.00
2022-08-30T15:28:19.254Z,60.70
2022-08-30T15:30:46.131Z,59.70
2022-08-30T15:33:12.842Z,61.10
2022-08-30T15:35:39.526Z,60.20
2022-08-30T15:38:06.522Z,59.80
2022-08-30T15:40:33.575Z,60.00
2022-08-30T15:43:03.835Z,60.10
2022-08-30T15:45:30.822Z,60.00
2022-08-30T15:48:01.080Z,60.50
2022-08-30T15:50:28.021Z,60.70
2022-08-30T15:52:55.134Z,60.80
2022-08-30T15:55:22.133Z,60.30
2022-08-30T15:57:48.879Z,60.30
2022-08-30T16:00:16.105Z,59.30
2022-08-30T16:02:43.852Z,59.30
2022-08-30T16:05:10.969Z,59.90
2022-08-30T16:07:40.784Z,61.00
2022-08-30T16:10:08.745Z,60.50
2022-08-30T16:12:35.470Z,60.80
2022-08-30T16:15:02.229Z,61.20
2022-08-30T16:17:28.993Z,60.70
2022-08-30T16:19:58.888Z,60.80
2022-08-30T16:22:26.441Z,61.40
2022-08-30T16:24:53.248Z,61.70
2022-08-30T16:27:21.071Z,62.10
2022-08-30T16:29:48.457Z,60.60
2022-08-30T16:32:17.507Z,61.50
2022-08-30T16:34:44.252Z,61.50
2022-08-30T16:37:11.024Z,62.10
2022-08-30T16:39:37.949Z,61.50
2022-08-30T16:42:06.721Z,62.00
2022-08-30T16:44:33.830Z,62.30
2022-08-30T16:47:01.674Z,62.90
2022-08-30T16:49:28.629Z,62.00
2022-08-30T16:51:55.941Z,61.90
2022-08-30T16:54:23.594Z,62.10
2022-08-30T16:56:50.497Z,62.30
2022-08-30T16:59:17.761Z,62.50
2022-08-30T17:01:45.865Z,62.30
2022-08-30T17:04:18.439Z,63.50
2022-08-30T17:06:47.794Z,63.70
2022-08-30T17:09:16.988Z,63.60
2022-08-30T17:11:44.955Z,64.70
2022-08-30T17:14:11.916Z,64.50
2022-08-30T17:16:39.065Z,65.20
2022-08-30T17:19:08.469Z,64.80
2022-08-30T17:21:35.465Z,64.80
2022-08-30T17:24:03.333Z,64.80
2022-08-30T17:26:35.911Z,65.50
2022-08-30T17:29:03.957Z,64.40
2022-08-30T17:31:31.722Z,65.90
2022-08-30T17:34:03.312Z,66.10
2022-08-30T17:36:32.572Z,65.60
2022-08-30T17:39:05.208Z,65.30
2022-08-30T17:41:39.609Z,65.80
2022-08-30T17:44:10.776Z,66.40
2022-08-30T17:46:37.873Z,65.80
2022-08-30T17:49:04.749Z,66.10
2022-08-30T17:51:32.244Z,66.20
2022-08-30T17:53:59.971Z,66.80
2022-08-30T17:56:34.190Z,66.90
2022-08-30T17:59:04.824Z,67.40
2022-08-30T18:01:31.704Z,67.20
2022-08-30T18:04:01.971Z,67.50
2022-08-30T18:06:33.203Z,67.80
2022-08-30T18:09:01.504Z,68.50
2022-08-30T18:11:28.386Z,68.70
2022-08-30T18:13:55.195Z,69.00
2022-08-30T18:19:09.628Z,69.30
2022-08-30T18:21:38.002Z,69.50
2022-08-30T18:24:05.625Z,70.00
2022-08-30T18:26:32.996Z,70.30
2022-08-30T18:29:00.524Z,70.90
2022-08-30T18:31:27.531Z,70.90
2022-08-30T18:33:55.194Z,71.00
2022-08-30T18:36:21.941Z,70.90
2022-08-30T18:38:48.977Z,71.30
2022-08-30T18:41:17.120Z,71.50
2022-08-30T18:43:44.761Z,71.30
2022-08-30T18:46:13.875Z,70.90
2022-08-30T18:48:41.722Z,71.30
2022-08-30T18:51:13.501Z,72.10
2022-08-30T18:53:41.354Z,72.30
2022-08-30T18:56:08.861Z,72.80
2022-08-30T18:58:36.505Z,72.60
2022-08-30T19:01:03.532Z,72.40
2022-08-30T19:03:33.602Z,72.70
2022-08-30T19:06:09.694Z,73.10
2022-08-30T19:08:37.321Z,73.90
2022-08-30T19:11:04.761Z,74.60
2022-08-30T19:13:34.689Z,74.40
2022-08-30T19:16:02.243Z,74.40
2022-08-30T19:18:29.027Z,74.30
2022-08-30T19:20:56.714Z,74.40
2022-08-30T19:23:26.882Z,74.20
2022-08-30T19:25:54.238Z,74.30
2022-08-30T19:28:21.685Z,74.60
2022-08-30T19:30:48.602Z,74.20
2022-08-30T19:33:17.267Z,74.10
2022-08-30T19:35:48.931Z,74.90
2022-08-30T19:38:17.642Z,75.30
2022-08-30T19:40:44.609Z,75.70
2022-08-30T19:43:11.488Z,75.80
2022-08-30T19:45:38.528Z,76.00
2022-08-30T19:48:05.444Z,76.00
2022-08-30T19:50:32.368Z,75.60
2022-08-30T19:52:59.204Z,75.90
2022-08-30T19:55:28.575Z,75.80
2022-08-30T19:57:57.426Z,75.80
2022-08-30T20:00:24.312Z,76.20
2022-08-30T20:02:51.420Z,76.60
2022-08-30T20:05:21.306Z,76.70
2022-08-30T20:07:50.931Z,77.00
2022-08-30T20:10:20.514Z,77.10
2022-08-30T20:12:49.895Z,77.00
2022-08-30T20:15:18.408Z,77.00
2022-08-30T20:18:03.442Z,77.00
2022-08-30T20:20:33.632Z,77.20
2022-08-30T20:23:04.316Z,77.10
2022-08-30T20:24:27.132Z,69.20
2022-08-30T20:25:31.858Z,77.40
2022-08-30T20:27:59.338Z,77.30
2022-08-30T20:30:26.217Z,77.90
2022-08-30T20:32:54.424Z,78.30
2022-08-30T20:35:21.460Z,77.90
2022-08-30T20:37:49.302Z,77.60
2022-08-30T20:40:16.908Z,77.50
2022-08-30T20:42:46.199Z,77.70
2022-08-30T20:45:15.322Z,78.20
2022-08-30T20:47:42.946Z,78.50
2022-08-30T20:50:13.777Z,78.20
2022-08-30T20:52:41.645Z,76.80
2022-08-30T20:55:09.957Z,75.80
2022-08-30T20:57:36.758Z,75.00
2022-08-30T21:00:06.112Z,75.30
2022-08-30T21:02:34.307Z,75.50
2022-08-30T21:05:04.422Z,76.10
2022-08-30T21:07:31.301Z,76.60
2022-08-30T21:09:58.179Z,77.90
2022-08-30T21:12:25.409Z,78.40
2022-08-30T21:14:52.197Z,78.90
2022-08-30T21:17:18.933Z,78.80
2022-08-30T21:19:46.276Z,78.40
2022-08-30T21:22:13.286Z,78.60
2022-08-30T21:24:40.076Z,78.60
2022-08-30T21:27:07.670Z,77.80
2022-08-30T21:29:34.402Z,77.00
2022-08-30T21:32:01.137Z,76.00
2022-08-30T21:34:27.846Z,75.50
2022-08-30T21:36:54.809Z,75.00
2022-08-30T21:39:27.086Z,75.10
2022-08-30T21:41:59.526Z,75.60
2022-08-30T21:44:27.057Z,75.90
2022-08-30T21:46:53.991Z,76.10
2022-08-30T21:49:25.297Z,76.20
2022-08-30T21:51:53.780Z,75.70
2022-08-30T21:54:21.431Z,75.40
2022-08-30T21:56:50.825Z,75.10
2022-08-30T21:59:19.457Z,75.20
2022-08-30T22:01:50.364Z,75.10
2022-08-30T22:04:17.502Z,75.10
2022-08-30T22:06:50.170Z,75.10
2022-08-30T22:09:21.886Z,75.40
2022-08-30T22:11:50.030Z,75.20
2022-08-30T22:14:18.149Z,75.20
2022-08-30T22:16:46.069Z,75.40
2022-08-30T22:19:13.258Z,75.20
2022-08-30T22:21:41.950Z,75.20
2022-08-30T22:24:17.525Z,75.20
2022-08-30T22:26:45.705Z,75.10
2022-08-30T22:29:24.835Z,75.40
2022-08-30T22:31:51.944Z,75.00
2022-08-30T22:34:19.198Z,75.20
2022-08-30T22:36:46.057Z,75.50
2022-08-30T22:39:13.484Z,75.80
2022-08-30T22:41:42.811Z,75.60
2022-08-30T22:44:10.162Z,76.10
2022-08-30T22:46:38.163Z,76.00
2022-08-30T22:49:07.327Z,75.50
2022-08-30T22:51:34.649Z,75.20
2022-08-30T22:54:02.547Z,75.20
2022-08-30T22:56:32.570Z,75.30
2022-08-30T22:58:59.443Z,75.60
2022-08-30T23:01:32.917Z,75.70
2022-08-30T23:04:02.841Z,75.80
2022-08-30T23:06:30.488Z,75.80
2022-08-30T23:08:57.629Z,75.80
2022-08-30T23:11:25.269Z,75.70
2022-08-30T23:13:52.968Z,75.70
2022-08-30T23:16:21.161Z,75.80
2022-08-30T23:18:49.009Z,75.70
2022-08-30T23:21:21.152Z,75.80
2022-08-30T23:24:07.452Z,75.80
2022-08-30T23:26:54.342Z,76.00
2022-08-30T23:29:40.249Z,76.10
2022-08-30T23:32:26.536Z,76.00
2022-08-30T23:35:12.075Z,75.60
2022-08-30T23:37:57.558Z,75.70
2022-08-30T23:40:43.262Z,75.60
2022-08-30T23:43:29.630Z,75.90
2022-08-30T23:46:19.305Z,76.20
2022-08-30T23:49:07.095Z,76.30
2022-08-30T23:51:54.314Z,76.50
2022-08-30T23:54:43.827Z,76.60
2022-08-30T23:57:29.368Z,76.70
